Terminal Aerodrome Forecast
Issued by NWS

Home | Current Version | Previous Version | Text Only | Print | Product List | Glossary On
Versions: 1 2 3 4 5 6 7 8 9 10 11 12 13 14 15 16 17 18 19 20 21 22 23 24
000
FTUS46 KMFR 230325 AAA
TAFOTH
TAF AMD
KOTH 230325Z 2303/2324 34009KT P6SM OVC030
     FM230500 32005KT P6SM SCT010 BKN015 OVC025
     FM230800 32005KT P6SM BKN007 OVC015
     FM231800 34012G20KT P6SM SCT015 OVC025=

USA.gov is the U.S. government's official web portal to all federal, state and local government web resources and services.